createdAt,value
2022-08-23T00:00:26.816Z,18.80
2022-08-23T00:02:58.909Z,18.80
2022-08-23T00:05:28.769Z,18.70
2022-08-23T00:07:57.589Z,18.60
2022-08-23T00:10:26.665Z,18.50
2022-08-23T00:12:55.261Z,18.50
2022-08-23T00:15:24.681Z,18.50
2022-08-23T00:17:53.372Z,18.40
2022-08-23T00:20:23.792Z,18.40
2022-08-23T00:22:52.580Z,18.40
2022-08-23T00:25:21.447Z,18.40
2022-08-23T00:27:50.139Z,18.40
2022-08-23T00:30:19.362Z,18.40
2022-08-23T00:32:47.945Z,18.40
2022-08-23T00:35:27.118Z,18.40
2022-08-23T00:38:33.389Z,18.40
2022-08-23T00:40:52.047Z,18.40
2022-08-23T00:43:44.041Z,18.40
2022-08-23T00:46:41.014Z,18.30
2022-08-23T00:49:13.001Z,18.40
2022-08-23T00:51:52.769Z,18.50
2022-08-23T00:54:25.710Z,18.60
2022-08-23T00:56:56.032Z,18.50
2022-08-23T00:59:24.896Z,18.60
2022-08-23T01:01:54.110Z,18.60
2022-08-23T01:04:23.134Z,18.60
2022-08-23T01:06:59.559Z,18.60
2022-08-23T01:09:30.083Z,18.70
2022-08-23T01:12:04.813Z,18.80
2022-08-23T01:14:37.343Z,18.90
2022-08-23T01:17:12.531Z,18.90
2022-08-23T01:19:45.476Z,19.00
2022-08-23T01:22:22.277Z,19.10
2022-08-23T01:25:06.496Z,19.20
2022-08-23T01:27:37.075Z,19.30
2022-08-23T01:30:07.936Z,19.40
2022-08-23T01:32:42.401Z,19.50
2022-08-23T01:35:11.336Z,19.50
2022-08-23T01:37:40.181Z,19.50
2022-08-23T01:40:11.288Z,19.60
2022-08-23T01:42:41.845Z,19.60
2022-08-23T01:45:12.436Z,19.60
2022-08-23T01:47:42.141Z,19.60
2022-08-23T01:50:13.171Z,19.60
2022-08-23T01:52:46.565Z,19.60
2022-08-23T01:55:18.198Z,19.60
2022-08-23T01:57:49.315Z,19.60
2022-08-23T02:00:19.546Z,19.50
2022-08-23T02:02:51.270Z,19.50
2022-08-23T02:05:20.724Z,19.40
2022-08-23T02:07:50.111Z,19.40
2022-08-23T02:10:21.015Z,19.30
2022-08-23T02:12:50.495Z,19.30
2022-08-23T02:15:19.344Z,19.20
2022-08-23T02:17:48.124Z,19.20
2022-08-23T02:20:17.354Z,19.20
2022-08-23T02:22:46.026Z,19.20
2022-08-23T02:25:14.670Z,19.20
2022-08-23T02:27:44.700Z,19.20
2022-08-23T02:30:14.295Z,19.20
2022-08-23T02:32:43.125Z,19.20
2022-08-23T02:35:13.342Z,19.20
2022-08-23T02:37:42.010Z,19.20
2022-08-23T02:40:11.968Z,19.20
2022-08-23T02:42:40.653Z,19.10
2022-08-23T02:45:11.644Z,19.10
2022-08-23T02:47:40.602Z,19.10
2022-08-23T02:50:10.955Z,19.10
2022-08-23T02:52:39.724Z,19.10
2022-08-23T02:55:09.484Z,19.10
2022-08-23T02:57:39.774Z,19.00
2022-08-23T03:00:12.637Z,19.10
2022-08-23T03:02:42.075Z,19.10
2022-08-23T03:05:12.093Z,19.10
2022-08-23T03:07:40.891Z,19.10
2022-08-23T03:10:10.599Z,19.10
2022-08-23T03:12:39.583Z,19.10
2022-08-23T03:15:11.834Z,19.20
2022-08-23T03:17:40.760Z,19.10
2022-08-23T03:20:10.693Z,19.20
2022-08-23T03:22:39.836Z,19.20
2022-08-23T03:25:17.195Z,19.20
2022-08-23T03:27:45.880Z,19.10
2022-08-23T03:30:19.672Z,19.10
2022-08-23T03:32:49.290Z,19.10
2022-08-23T03:35:18.415Z,19.10
2022-08-23T03:37:47.431Z,19.10
2022-08-23T03:40:16.312Z,19.10
2022-08-23T03:42:44.928Z,19.00
2022-08-23T03:45:13.687Z,19.00
2022-08-23T03:47:44.780Z,19.00
2022-08-23T03:50:14.057Z,19.00
2022-08-23T03:52:42.761Z,19.00
2022-08-23T03:55:11.855Z,19.00
2022-08-23T03:57:41.098Z,19.10
2022-08-23T04:00:12.848Z,19.10
2022-08-23T04:02:42.910Z,19.20
2022-08-23T04:05:12.578Z,19.20
2022-08-23T04:07:41.667Z,19.20
2022-08-23T04:10:13.953Z,19.20
2022-08-23T04:12:43.313Z,19.30
2022-08-23T04:15:13.764Z,19.30
2022-08-23T04:17:43.986Z,19.30
2022-08-23T04:20:12.850Z,19.40
2022-08-23T04:22:41.532Z,19.40
2022-08-23T04:25:33.626Z,19.50
2022-08-23T04:28:00.907Z,19.60
2022-08-23T04:30:29.965Z,19.60
2022-08-23T04:33:01.655Z,19.60
2022-08-23T04:35:30.612Z,19.50
2022-08-23T04:37:59.359Z,19.60
2022-08-23T04:40:45.923Z,19.50
2022-08-23T04:43:15.678Z,19.50
2022-08-23T04:45:44.513Z,19.50
2022-08-23T04:48:14.835Z,19.50
2022-08-23T04:50:43.719Z,19.50
2022-08-23T04:53:12.877Z,19.50
2022-08-23T04:55:41.634Z,19.50
2022-08-23T04:58:10.407Z,19.50
2022-08-23T05:00:39.572Z,19.50
2022-08-23T05:03:08.156Z,19.40
2022-08-23T05:05:38.720Z,19.50
2022-08-23T05:08:07.368Z,19.50
2022-08-23T05:10:36.099Z,19.50
2022-08-23T05:13:04.762Z,19.50
2022-08-23T05:15:33.479Z,19.50
2022-08-23T05:18:02.204Z,19.50
2022-08-23T05:20:31.550Z,19.60
2022-08-23T05:23:02.652Z,19.60
2022-08-23T05:25:45.138Z,19.70
2022-08-23T05:28:13.815Z,19.80
2022-08-23T05:30:42.865Z,19.80
2022-08-23T05:33:25.300Z,19.80
2022-08-23T05:35:54.286Z,19.90
2022-08-23T05:38:25.128Z,20.00
2022-08-23T05:40:55.025Z,20.00
2022-08-23T05:43:24.855Z,20.10
2022-08-23T05:46:03.589Z,20.10
2022-08-23T05:48:33.705Z,20.20
2022-08-23T05:51:11.306Z,20.30
2022-08-23T05:53:42.987Z,20.30
2022-08-23T05:56:14.466Z,20.40
2022-08-23T05:58:43.522Z,20.40
2022-08-23T06:01:12.860Z,20.50
2022-08-23T06:03:41.783Z,20.50
2022-08-23T06:06:11.548Z,20.60
2022-08-23T06:08:42.504Z,20.70
2022-08-23T06:11:14.748Z,20.80
2022-08-23T06:13:45.459Z,20.70
2022-08-23T06:16:16.048Z,21.00
2022-08-23T06:18:45.521Z,21.10
2022-08-23T06:21:17.073Z,21.20
2022-08-23T06:23:48.217Z,21.20
2022-08-23T06:26:19.311Z,21.30
2022-08-23T06:28:50.229Z,21.40
2022-08-23T06:31:41.221Z,21.20
2022-08-23T06:34:10.705Z,21.50
2022-08-23T06:36:39.628Z,21.50
2022-08-23T06:39:18.176Z,21.60
2022-08-23T06:41:48.799Z,21.70
2022-08-23T06:44:17.850Z,21.70
2022-08-23T06:46:49.098Z,21.80
2022-08-23T06:49:18.530Z,21.90
2022-08-23T06:51:51.212Z,22.00
2022-08-23T06:54:26.692Z,22.00
2022-08-23T06:56:55.732Z,22.00
2022-08-23T06:59:24.689Z,22.10
2022-08-23T07:01:56.477Z,22.20
2022-08-23T07:04:27.527Z,22.30
2022-08-23T07:06:57.481Z,22.30
2022-08-23T07:09:28.261Z,22.30
2022-08-23T07:11:57.230Z,22.40
2022-08-23T07:14:26.980Z,22.40
2022-08-23T07:16:58.196Z,22.40
2022-08-23T07:19:29.397Z,22.40
2022-08-23T07:21:58.666Z,22.60
2022-08-23T07:24:32.886Z,22.60
2022-08-23T07:27:06.502Z,22.60
2022-08-23T07:29:37.538Z,22.70
2022-08-23T07:32:06.440Z,22.80
2022-08-23T07:34:35.477Z,22.80
2022-08-23T07:37:04.535Z,22.90
2022-08-23T07:39:41.491Z,23.00
2022-08-23T07:42:23.034Z,23.10
2022-08-23T07:44:53.704Z,23.30
2022-08-23T07:47:22.756Z,23.40
2022-08-23T07:49:51.717Z,23.60
2022-08-23T07:52:20.507Z,23.60
2022-08-23T07:54:50.624Z,23.70
2022-08-23T07:57:20.250Z,23.80
2022-08-23T07:59:49.446Z,23.90
2022-08-23T08:02:18.275Z,24.10
2022-08-23T08:04:47.061Z,24.20
2022-08-23T08:07:20.956Z,24.40
2022-08-23T08:09:51.436Z,24.50
2022-08-23T08:12:20.234Z,24.70
2022-08-23T08:14:49.544Z,24.80
2022-08-23T08:17:21.327Z,25.00
2022-08-23T08:19:52.884Z,25.10
2022-08-23T08:22:21.566Z,25.10
2022-08-23T08:24:51.710Z,25.10
2022-08-23T08:27:21.627Z,25.40
2022-08-23T08:30:12.992Z,25.50
2022-08-23T08:32:49.726Z,25.60
2022-08-23T08:35:22.604Z,25.60
2022-08-23T08:37:51.498Z,25.70
2022-08-23T08:40:31.279Z,25.80
2022-08-23T08:43:26.353Z,26.00
2022-08-23T08:46:03.702Z,26.10
2022-08-23T08:48:41.524Z,26.40
2022-08-23T08:51:21.739Z,26.60
2022-08-23T08:53:52.717Z,26.80
2022-08-23T08:56:32.248Z,27.00
2022-08-23T08:59:04.909Z,27.00
2022-08-23T09:01:36.784Z,27.10
2022-08-23T09:04:07.238Z,27.10
2022-08-23T09:06:49.072Z,27.10
2022-08-23T09:09:35.621Z,27.00
2022-08-23T09:12:16.132Z,26.80
2022-08-23T09:14:59.210Z,26.80
2022-08-23T09:17:37.392Z,26.80
2022-08-23T09:20:08.823Z,26.80
2022-08-23T09:22:41.347Z,26.90
2022-08-23T09:25:12.268Z,27.20
2022-08-23T09:27:45.644Z,27.40
2022-08-23T09:30:17.219Z,27.70
2022-08-23T09:32:50.452Z,27.90
2022-08-23T09:35:21.894Z,28.20
2022-08-23T09:37:57.969Z,28.40
2022-08-23T09:40:41.363Z,28.50
2022-08-23T09:43:16.415Z,28.60
2022-08-23T09:45:57.042Z,28.70
2022-08-23T09:48:39.187Z,29.00
2022-08-23T09:51:18.230Z,29.10
2022-08-23T09:53:50.950Z,29.10
2022-08-23T09:56:26.358Z,28.90
2022-08-23T09:58:57.092Z,28.90
2022-08-23T10:01:27.941Z,28.80
2022-08-23T10:04:12.975Z,28.70
2022-08-23T10:06:43.642Z,28.70
2022-08-23T10:09:25.146Z,28.70
2022-08-23T10:11:54.065Z,28.80
2022-08-23T10:14:28.692Z,28.80
2022-08-23T10:17:08.418Z,28.90
2022-08-23T10:19:43.869Z,29.10
2022-08-23T10:22:22.071Z,29.10
2022-08-23T10:24:58.826Z,29.30
2022-08-23T10:27:53.682Z,29.40
2022-08-23T10:30:42.709Z,29.50
2022-08-23T10:33:18.891Z,29.60
2022-08-23T10:35:56.026Z,29.60
2022-08-23T10:38:45.645Z,29.80
2022-08-23T10:41:35.916Z,29.90
2022-08-23T10:44:17.892Z,29.90
2022-08-23T10:46:57.228Z,29.90
2022-08-23T10:49:28.260Z,29.90
2022-08-23T10:51:59.483Z,30.00
2022-08-23T10:54:46.095Z,30.00
2022-08-23T10:57:18.310Z,29.90
2022-08-23T10:59:48.549Z,29.90
2022-08-23T11:02:31.646Z,29.90
2022-08-23T11:05:18.442Z,29.90
2022-08-23T11:07:59.466Z,30.00
2022-08-23T11:10:34.754Z,30.20
2022-08-23T11:13:21.994Z,30.40
2022-08-23T11:15:58.958Z,30.40
2022-08-23T11:18:43.333Z,30.50
2022-08-23T11:21:34.015Z,30.40
2022-08-23T11:24:31.800Z,30.30
2022-08-23T11:27:07.223Z,30.10
2022-08-23T11:29:43.501Z,30.00
2022-08-23T11:32:29.282Z,30.00
2022-08-23T11:35:24.280Z,29.90
2022-08-23T11:38:00.424Z,29.90
2022-08-23T11:41:06.918Z,29.90
2022-08-23T11:43:38.400Z,29.90
2022-08-23T11:46:28.638Z,29.90
2022-08-23T11:49:21.756Z,29.80
2022-08-23T11:52:02.194Z,29.70
2022-08-23T11:54:46.369Z,29.70
2022-08-23T11:57:28.234Z,29.60
2022-08-23T12:00:22.732Z,29.60
2022-08-23T12:03:04.352Z,29.70
2022-08-23T12:06:10.268Z,29.90
2022-08-23T12:09:01.720Z,30.00
2022-08-23T12:12:03.492Z,30.00
2022-08-23T12:14:49.931Z,30.10
2022-08-23T12:17:54.439Z,30.20
2022-08-23T12:20:30.393Z,30.40
2022-08-23T12:23:08.149Z,30.50
2022-08-23T12:25:38.667Z,30.40
2022-08-23T12:28:21.042Z,30.40
2022-08-23T12:30:57.887Z,30.30
2022-08-23T12:33:35.774Z,30.30
2022-08-23T12:36:12.348Z,30.20
2022-08-23T12:38:55.035Z,30.10
2022-08-23T12:41:30.063Z,30.00
2022-08-23T12:44:03.180Z,29.90
2022-08-23T12:46:35.040Z,29.70
2022-08-23T12:49:04.869Z,29.60
2022-08-23T12:51:34.097Z,29.60
2022-08-23T12:54:15.634Z,29.60
2022-08-23T12:56:51.154Z,29.60
2022-08-23T12:59:35.976Z,29.70
2022-08-23T13:02:06.596Z,29.70
2022-08-23T13:04:39.295Z,29.90
2022-08-23T13:07:11.390Z,29.90
2022-08-23T13:09:42.403Z,29.90
2022-08-23T13:12:16.563Z,29.90
2022-08-23T13:14:48.097Z,30.00
2022-08-23T13:17:23.265Z,29.90
2022-08-23T13:19:56.824Z,29.80
2022-08-23T13:22:27.484Z,29.80
2022-08-23T13:27:59.432Z,29.70
2022-08-23T13:30:32.519Z,29.70
2022-08-23T13:33:23.432Z,29.70
2022-08-23T13:35:54.597Z,29.70
2022-08-23T13:38:26.745Z,29.80
2022-08-23T13:41:01.069Z,29.80
2022-08-23T13:43:37.381Z,29.90
2022-08-23T13:46:16.421Z,29.90
2022-08-23T13:48:50.528Z,30.00
2022-08-23T13:51:28.443Z,29.90
2022-08-23T13:53:58.788Z,30.00
2022-08-23T13:56:31.700Z,30.00
2022-08-23T13:59:03.961Z,30.00
2022-08-23T14:01:33.285Z,29.90
2022-08-23T14:04:01.998Z,29.90
2022-08-23T14:06:30.810Z,29.90
2022-08-23T14:08:59.953Z,29.90
2022-08-23T14:11:28.669Z,29.90
2022-08-23T14:14:01.447Z,29.90
2022-08-23T14:16:40.534Z,29.90
2022-08-23T14:19:18.014Z,29.80
2022-08-23T14:22:01.402Z,29.80
2022-08-23T14:24:30.423Z,29.70
2022-08-23T14:27:03.409Z,29.60
2022-08-23T14:29:32.705Z,29.40
2022-08-23T14:32:10.379Z,29.30
2022-08-23T14:34:39.015Z,29.10
2022-08-23T14:39:56.414Z,28.80
2022-08-23T14:42:25.388Z,28.70
2022-08-23T14:44:54.558Z,28.50
2022-08-23T14:47:24.757Z,28.30
2022-08-23T14:49:54.257Z,28.10
2022-08-23T14:52:23.798Z,28.00
2022-08-23T14:54:52.441Z,27.90
2022-08-23T14:57:21.184Z,27.80
2022-08-23T14:59:50.366Z,27.70
2022-08-23T15:02:25.716Z,27.70
2022-08-23T15:04:54.715Z,27.60
2022-08-23T15:07:23.814Z,27.50
2022-08-23T15:09:55.438Z,27.40
2022-08-23T15:15:21.746Z,27.40
2022-08-23T15:17:54.994Z,27.40
2022-08-23T15:20:26.210Z,27.40
2022-08-23T15:22:55.321Z,27.40
2022-08-23T15:25:25.022Z,27.40
2022-08-23T15:27:53.850Z,27.40
2022-08-23T15:30:23.615Z,27.50
2022-08-23T15:32:56.647Z,27.50
2022-08-23T15:35:26.486Z,27.50
2022-08-23T15:37:57.464Z,27.50
2022-08-23T15:40:26.819Z,27.50
2022-08-23T15:42:55.758Z,27.60
2022-08-23T15:45:24.640Z,27.60
2022-08-23T15:47:56.701Z,27.70
2022-08-23T15:50:31.504Z,27.70
2022-08-23T15:53:00.426Z,27.70
2022-08-23T15:55:33.656Z,27.70
2022-08-23T15:58:02.293Z,27.60
2022-08-23T16:00:31.924Z,27.60
2022-08-23T16:03:27.846Z,27.50
2022-08-23T16:05:53.826Z,27.50
2022-08-23T16:08:27.491Z,27.40
2022-08-23T16:10:57.433Z,27.30
2022-08-23T16:13:27.175Z,27.10
2022-08-23T16:15:56.059Z,27.00
2022-08-23T16:18:26.647Z,26.80
2022-08-23T16:20:55.265Z,26.70
2022-08-23T16:23:26.563Z,26.60
2022-08-23T16:25:59.136Z,26.50
2022-08-23T16:28:30.265Z,26.40
2022-08-23T16:30:58.979Z,26.30
2022-08-23T16:33:29.200Z,26.20
2022-08-23T16:35:57.945Z,26.10
2022-08-23T16:38:26.778Z,26.10
2022-08-23T16:40:55.523Z,26.10
2022-08-23T16:43:24.399Z,26.10
2022-08-23T16:45:53.128Z,26.00
2022-08-23T16:48:21.856Z,26.00
2022-08-23T16:50:52.081Z,25.90
2022-08-23T16:53:20.826Z,25.70
2022-08-23T16:55:50.026Z,25.70
2022-08-23T16:58:18.957Z,25.60
2022-08-23T17:00:47.635Z,25.50
2022-08-23T17:03:16.470Z,25.40
2022-08-23T17:05:45.414Z,25.30
2022-08-23T17:08:15.688Z,25.20
2022-08-23T17:10:45.166Z,25.20
2022-08-23T17:13:16.638Z,25.10
2022-08-23T17:15:45.266Z,25.00
2022-08-23T17:18:14.120Z,25.00
2022-08-23T17:20:43.107Z,24.90
2022-08-23T17:23:11.862Z,24.90
2022-08-23T17:25:44.862Z,24.90
2022-08-23T17:28:13.449Z,24.80
2022-08-23T17:30:42.387Z,24.80
2022-08-23T17:33:11.525Z,24.90
2022-08-23T17:35:41.304Z,24.90
2022-08-23T17:38:09.972Z,24.80
2022-08-23T17:40:42.503Z,24.80
2022-08-23T17:43:12.649Z,24.80
2022-08-23T17:45:43.782Z,24.80
2022-08-23T17:48:13.172Z,24.70
2022-08-23T17:50:43.737Z,24.60
2022-08-23T17:53:14.593Z,24.50
2022-08-23T17:55:44.961Z,24.50
2022-08-23T17:58:14.596Z,24.40
2022-08-23T18:00:52.597Z,24.40
2022-08-23T18:03:21.234Z,24.30
2022-08-23T18:05:49.950Z,24.10
2022-08-23T18:08:18.928Z,24.10
2022-08-23T18:10:49.086Z,23.90
2022-08-23T18:13:17.842Z,23.80
2022-08-23T18:15:46.537Z,23.80
2022-08-23T18:18:15.207Z,23.80
2022-08-23T18:20:43.871Z,23.70
2022-08-23T18:23:15.834Z,23.70
2022-08-23T18:25:45.921Z,23.60
2022-08-23T18:28:15.931Z,23.50
2022-08-23T18:30:48.926Z,23.30
2022-08-23T18:33:19.083Z,23.30
2022-08-23T18:36:00.091Z,23.20
2022-08-23T18:38:28.642Z,23.20
2022-08-23T18:40:57.509Z,23.20
2022-08-23T18:43:37.062Z,23.10
2022-08-23T18:46:06.367Z,23.00
2022-08-23T18:48:35.760Z,23.10
2022-08-23T18:51:05.258Z,23.10
2022-08-23T18:53:44.291Z,23.10
2022-08-23T18:56:12.964Z,23.00
2022-08-23T18:58:43.062Z,23.00
2022-08-23T19:01:22.840Z,22.80
2022-08-23T19:03:51.717Z,22.70
2022-08-23T19:06:20.922Z,22.60
2022-08-23T19:08:49.720Z,22.60
2022-08-23T19:11:18.538Z,22.50
2022-08-23T19:13:51.250Z,22.50
2022-08-23T19:16:26.531Z,22.40
2022-08-23T19:18:56.151Z,22.30
2022-08-23T19:21:27.764Z,22.30
2022-08-23T19:23:58.647Z,22.40
2022-08-23T19:26:32.105Z,22.30
2022-08-23T19:29:03.621Z,22.20
2022-08-23T19:31:37.192Z,22.20
2022-08-23T19:34:08.295Z,22.10
2022-08-23T19:36:46.474Z,22.10
2022-08-23T19:39:17.970Z,22.10
2022-08-23T19:41:48.593Z,22.10
2022-08-23T19:44:18.714Z,21.90
2022-08-23T19:46:48.188Z,21.90
2022-08-23T19:49:17.255Z,21.80
2022-08-23T19:51:46.235Z,21.80
2022-08-23T19:54:14.957Z,21.90
2022-08-23T19:56:48.782Z,21.90
2022-08-23T19:59:23.308Z,21.90
2022-08-23T20:01:53.134Z,21.80
2022-08-23T20:04:23.478Z,21.80
2022-08-23T20:06:52.220Z,21.80
2022-08-23T20:09:26.649Z,21.70
2022-08-23T20:11:55.428Z,21.80
2022-08-23T20:14:27.381Z,21.80
2022-08-23T20:16:57.105Z,21.80
2022-08-23T20:19:27.614Z,21.70
2022-08-23T20:22:21.818Z,21.70
2022-08-23T20:24:51.994Z,21.80
2022-08-23T20:27:24.136Z,21.70
2022-08-23T20:30:02.025Z,21.70
2022-08-23T20:32:31.538Z,21.60
2022-08-23T20:35:00.643Z,21.60
2022-08-23T20:37:29.304Z,21.70
2022-08-23T20:39:58.359Z,21.60
2022-08-23T20:42:27.318Z,21.60
2022-08-23T20:44:56.010Z,21.60
2022-08-23T20:47:26.129Z,21.50
2022-08-23T20:49:54.739Z,21.60
2022-08-23T20:52:23.527Z,21.50
2022-08-23T20:54:52.352Z,21.40
2022-08-23T20:57:21.203Z,21.40
2022-08-23T20:59:53.748Z,21.30
2022-08-23T21:02:22.475Z,21.20
2022-08-23T21:04:52.667Z,21.30
2022-08-23T21:07:21.587Z,21.20
2022-08-23T21:09:53.446Z,21.10
2022-08-23T21:12:22.203Z,21.10
2022-08-23T21:14:50.804Z,21.00
2022-08-23T21:17:19.398Z,21.00
2022-08-23T21:19:48.332Z,21.00
2022-08-23T21:22:18.372Z,21.00
2022-08-23T21:24:48.031Z,21.00
2022-08-23T21:27:18.346Z,21.00
2022-08-23T21:29:47.214Z,20.90
2022-08-23T21:32:15.872Z,20.90
2022-08-23T21:34:44.487Z,20.70
2022-08-23T21:37:13.067Z,20.70
2022-08-23T21:39:43.380Z,20.70
2022-08-23T21:42:15.579Z,20.70
2022-08-23T21:44:45.204Z,20.60
2022-08-23T21:47:19.840Z,20.60
2022-08-23T21:49:48.658Z,20.50
2022-08-23T21:52:17.392Z,20.40
2022-08-23T21:54:47.556Z,20.40
2022-08-23T21:57:21.761Z,20.40
2022-08-23T21:59:50.641Z,20.40
2022-08-23T22:02:19.465Z,20.40
2022-08-23T22:04:49.402Z,20.40
2022-08-23T22:07:18.420Z,20.40
2022-08-23T22:09:48.734Z,20.30
2022-08-23T22:12:19.334Z,20.30
2022-08-23T22:14:49.556Z,20.20
2022-08-23T22:17:18.258Z,20.20
2022-08-23T22:19:47.165Z,20.20
2022-08-23T22:22:15.831Z,20.10
2022-08-23T22:24:44.515Z,20.10
2022-08-23T22:27:14.537Z,20.00
2022-08-23T22:29:47.211Z,20.00
2022-08-23T22:32:16.091Z,20.00
2022-08-23T22:34:44.803Z,20.00
2022-08-23T22:37:18.397Z,20.00
2022-08-23T22:39:47.340Z,20.00
2022-08-23T22:42:17.755Z,20.00
2022-08-23T22:44:46.405Z,19.90
2022-08-23T22:47:15.415Z,19.90
2022-08-23T22:49:44.136Z,19.90
2022-08-23T22:52:12.852Z,19.80
2022-08-23T22:54:41.729Z,19.70
2022-08-23T22:57:10.419Z,19.60
2022-08-23T22:59:40.854Z,19.60
2022-08-23T23:02:10.293Z,19.60
2022-08-23T23:04:39.035Z,19.60
2022-08-23T23:07:07.642Z,19.60
2022-08-23T23:09:36.846Z,19.50
2022-08-23T23:12:06.109Z,19.50
2022-08-23T23:14:34.797Z,19.40
2022-08-23T23:17:05.041Z,19.40
2022-08-23T23:19:50.977Z,19.40
2022-08-23T23:22:19.913Z,19.40
2022-08-23T23:24:48.642Z,19.30
2022-08-23T23:27:17.292Z,19.20
2022-08-23T23:29:46.180Z,19.20
2022-08-23T23:32:18.329Z,19.20
2022-08-23T23:34:48.085Z,19.20
2022-08-23T23:37:16.858Z,19.10
2022-08-23T23:39:45.545Z,19.10
2022-08-23T23:42:14.169Z,19.10
2022-08-23T23:44:42.807Z,19.20
2022-08-23T23:47:11.464Z,19.10
2022-08-23T23:49:41.564Z,19.10
2022-08-23T23:52:10.151Z,19.10
2022-08-23T23:54:38.853Z,19.10
2022-08-23T23:57:08.495Z,19.00
2022-08-23T23:59:37.373Z,18.90
